Time;durP1;ratioP1;P1;durP2;ratioP2;P2;SDS_P1;SDS_P2;PMS_P1;PMS_P2;Temp;Humidity;BMP_temperature;BMP_pressure;BME280_temperature;BME280_humidity;BME280_pressure;Samples;Min_cycle;Max_cycle;Signal;HPM_P1;HPM_P2
2023/03/26 00:01:06;;;;;;;18.58;3.67;;;;;;;7.39;92.35;100632.56;5031501;28;20018;-77
2023/03/26 00:03:33;;;;;;;16.75;3.17;;;;;;;7.37;92.22;100634.31;5029388;28;20053;-77
2023/03/26 00:06:11;;;;;;;14.48;3.47;;;;;;;7.33;92.58;100634.38;5038698;28;20100;-77
2023/03/26 00:08:38;;;;;;;14.80;3.10;;;;;;;7.31;92.08;100630.97;5043916;28;20052;-77
2023/03/26 00:11:07;;;;;;;11.52;2.72;;;;;;;7.28;92.38;100631.88;5032312;28;20028;-77
2023/03/26 00:13:33;;;;;;;14.43;3.50;;;;;;;7.25;92.36;100631.91;5033212;28;20457;-77
2023/03/26 00:15:59;;;;;;;14.93;2.92;;;;;;;7.22;92.34;100629.38;5046696;28;20103;-77
2023/03/26 00:18:29;;;;;;;15.18;2.90;;;;;;;7.18;92.03;100635.47;5047952;28;20021;-78
2023/03/26 00:20:59;;;;;;;14.52;2.67;;;;;;;7.16;92.08;100632.06;5040023;28;20044;-77
2023/03/26 00:23:27;;;;;;;11.85;2.58;;;;;;;7.13;92.14;100639.00;5036329;28;20459;-77
2023/03/26 00:25:53;;;;;;;21.58;3.28;;;;;;;7.10;92.25;100631.28;5036467;28;20530;-77
2023/03/26 00:28:21;;;;;;;22.83;3.40;;;;;;;7.08;92.45;100635.63;5047653;28;20025;-77
2023/03/26 00:31:07;;;;;;;16.17;2.55;;;;;;;7.07;92.24;100633.91;5045049;28;20100;-77
2023/03/26 00:33:37;;;;;;;13.57;2.80;;;;;;;7.04;92.17;100621.00;5036022;28;20041;-77
2023/03/26 00:36:05;;;;;;;14.07;2.60;;;;;;;7.02;92.07;100625.34;5035005;28;20487;-77
2023/03/26 00:38:32;;;;;;;12.25;2.55;;;;;;;6.99;92.09;100615.91;5035912;28;20029;-77
2023/03/26 00:41:04;;;;;;;14.45;2.67;;;;;;;6.96;91.82;100609.94;5039636;28;20064;-77
2023/03/26 00:43:31;;;;;;;11.02;2.45;;;;;;;6.93;92.07;100604.81;5030901;28;20031;-77
2023/03/26 00:45:58;;;;;;;14.68;2.45;;;;;;;6.90;92.05;100600.53;5042921;28;20021;-77
2023/03/26 00:48:24;;;;;;;14.00;2.25;;;;;;;6.89;91.79;100597.97;5031743;28;20088;-77
2023/03/26 00:50:50;;;;;;;11.07;2.03;;;;;;;6.87;92.11;100599.72;5035958;28;20022;-77
2023/03/26 00:53:18;;;;;;;17.83;2.70;;;;;;;6.84;91.92;100592.88;5034677;28;20089;-77
2023/03/26 00:55:46;;;;;;;13.60;2.35;;;;;;;6.81;91.80;100601.53;5039443;28;20025;-78
2023/03/26 00:58:13;;;;;;;12.77;2.42;;;;;;;6.79;91.86;100600.69;5030615;28;20116;-77
2023/03/26 01:00:47;;;;;;;16.33;2.58;;;;;;;6.77;91.88;100602.44;5034256;28;20026;-77
2023/03/26 01:03:14;;;;;;;15.20;2.60;;;;;;;6.76;91.51;100603.31;5029727;28;20124;-77
2023/03/26 01:05:51;;;;;;;16.70;2.63;;;;;;;6.74;92.21;100594.72;5030224;28;20057;-77
2023/03/26 01:08:30;;;;;;;15.38;2.58;;;;;;;6.73;91.89;100587.84;5030672;28;20104;-77
2023/03/26 01:11:06;;;;;;;13.95;2.53;;;;;;;6.73;91.80;100587.00;5032215;28;20033;-77
2023/03/26 01:13:35;;;;;;;16.50;2.15;;;;;;;6.72;91.94;100583.53;5033026;28;20029;-77
2023/03/26 01:16:02;;;;;;;9.45;2.30;;;;;;;6.73;92.04;100577.50;5032389;28;20025;-77
2023/03/26 01:18:33;;;;;;;17.42;2.55;;;;;;;6.74;92.08;100568.88;5041369;28;20037;-77
2023/03/26 01:21:04;;;;;;;13.38;2.53;;;;;;;6.77;92.01;100566.25;5034079;28;20387;-77
2023/03/26 01:23:59;;;;;;;15.38;2.35;;;;;;;6.81;91.78;100561.88;5041513;28;20376;-77
2023/03/26 01:26:54;;;;;;;14.18;2.33;;;;;;;6.81;91.55;100555.00;5033360;28;20128;-77
2023/03/26 01:29:38;;;;;;;14.10;2.17;;;;;;;6.81;91.87;100555.00;5034161;28;20032;-77
2023/03/26 01:32:29;;;;;;;12.80;2.35;;;;;;;6.81;92.06;100544.66;5033926;28;20101;-77
2023/03/26 01:35:01;;;;;;;12.27;2.08;;;;;;;6.79;91.98;100543.81;5034565;28;20033;-77
2023/03/26 01:37:39;;;;;;;12.38;2.33;;;;;;;6.80;91.91;100542.94;5034951;28;20018;-77
2023/03/26 01:40:27;;;;;;;10.13;1.92;;;;;;;6.79;92.10;100537.78;5034100;28;20021;-77
2023/03/26 01:43:01;;;;;;;14.45;1.92;;;;;;;6.78;91.67;100534.34;5034169;28;20036;-77
2023/03/26 01:45:30;;;;;;;12.63;1.83;;;;;;;6.76;91.81;100522.28;5031466;28;20534;-77
2023/03/26 01:47:56;;;;;;;12.77;1.77;;;;;;;6.72;91.90;100513.75;5032958;28;20033;-77
2023/03/26 01:50:22;;;;;;;10.52;1.85;;;;;;;6.68;91.68;100517.25;5037325;28;20025;-77
2023/03/26 01:52:47;;;;;;;13.25;1.92;;;;;;;6.65;91.62;100517.31;5033588;28;20025;-77
2023/03/26 01:55:13;;;;;;;11.80;1.92;;;;;;;6.61;91.66;100511.31;5034854;28;20025;-77
2023/03/26 01:57:44;;;;;;;9.77;2.05;;;;;;;6.56;91.18;100514.84;5039513;28;20186;-77
2023/03/26 02:00:28;;;;;;;6.47;1.58;;;;;;;6.53;91.43;100514.00;5033065;28;20112;-77
2023/03/26 02:03:16;;;;;;;14.95;2.20;;;;;;;6.48;91.36;100509.78;5031757;28;20025;-77
2023/03/26 02:06:06;;;;;;;11.43;1.90;;;;;;;6.44;91.34;100508.13;5034847;28;20074;-77
2023/03/26 02:08:40;;;;;;;11.35;2.00;;;;;;;6.40;91.56;100501.31;5033499;28;20500;-77
2023/03/26 02:11:10;;;;;;;14.85;2.22;;;;;;;6.37;91.55;100497.00;5035635;28;20089;-77
2023/03/26 02:13:37;;;;;;;11.07;1.92;;;;;;;6.35;91.72;100494.47;5032141;28;20232;-77
2023/03/26 02:16:04;;;;;;;15.27;2.15;;;;;;;6.31;91.57;100487.63;5034243;28;20021;-77
2023/03/26 02:18:35;;;;;;;11.85;1.98;;;;;;;6.30;91.67;100485.06;5034100;28;20030;-77
2023/03/26 02:21:02;;;;;;;13.32;2.38;;;;;;;6.28;91.77;100484.25;5033333;28;20037;-77
2023/03/26 02:23:28;;;;;;;14.95;2.20;;;;;;;6.25;91.85;100476.53;5033947;28;20358;-77
2023/03/26 02:25:54;;;;;;;12.80;2.13;;;;;;;6.24;92.03;100475.66;5034146;28;20048;-77
2023/03/26 02:28:19;;;;;;;12.32;2.17;;;;;;;6.25;92.17;100469.63;5034050;28;20478;-77
2023/03/26 02:30:44;;;;;;;8.40;1.88;;;;;;;6.23;92.20;100469.66;5038846;28;20017;-77
2023/03/26 02:33:14;;;;;;;12.85;1.70;;;;;;;6.21;91.89;100462.81;5033770;28;20017;-77
2023/03/26 02:35:44;;;;;;;11.60;2.30;;;;;;;6.20;92.00;100461.09;5032546;28;20017;-77
2023/03/26 02:38:13;;;;;;;13.23;2.08;;;;;;;6.16;92.57;100452.50;5033828;28;20021;-77
2023/03/26 02:40:38;;;;;;;13.98;2.58;;;;;;;6.14;92.50;100456.88;5033169;28;20025;-77
2023/03/26 02:43:04;;;;;;;13.05;2.45;;;;;;;6.14;92.45;100451.72;5044046;28;20430;-77
2023/03/26 02:45:29;;;;;;;11.80;2.10;;;;;;;6.16;92.60;100462.84;5049077;28;20022;-77
2023/03/26 02:47:54;;;;;;;16.95;2.30;;;;;;;6.15;92.45;100455.97;5033544;28;20025;-77
2023/03/26 02:50:20;;;;;;;9.43;2.10;;;;;;;6.14;92.38;100449.13;5030765;28;20503;-77
2023/03/26 02:52:48;;;;;;;14.43;2.13;;;;;;;6.13;92.30;100446.53;5033475;28;20028;-77
2023/03/26 02:55:14;;;;;;;10.48;2.05;;;;;;;6.13;92.51;100442.25;5032724;28;20032;-77
2023/03/26 02:57:40;;;;;;;13.48;2.25;;;;;;;6.14;92.46;100446.53;5032818;28;20029;-77
2023/03/26 03:00:14;;;;;;;15.55;2.20;;;;;;;6.14;92.30;100432.75;5031508;28;20034;-77
2023/03/26 03:02:40;;;;;;;16.85;2.03;;;;;;;6.15;92.61;100434.47;5031931;28;20487;-77
2023/03/26 03:05:06;;;;;;;11.10;1.65;;;;;;;6.15;92.38;100431.88;5030679;28;20057;-77
2023/03/26 03:07:36;;;;;;;10.18;1.80;;;;;;;6.17;92.59;100425.81;5037563;28;20116;-77
2023/03/26 03:10:02;;;;;;;10.05;1.67;;;;;;;6.17;92.42;100419.81;5034957;28;20025;-77
2023/03/26 03:12:28;;;;;;;7.60;1.55;;;;;;;6.16;92.40;100411.19;5030253;28;20033;-77
2023/03/26 03:14:53;;;;;;;13.18;2.13;;;;;;;6.16;92.67;100416.34;5032873;28;20033;-78
2023/03/26 03:17:19;;;;;;;11.68;1.70;;;;;;;6.18;92.58;100414.59;5032908;28;20031;-77
2023/03/26 03:19:45;;;;;;;11.57;1.80;;;;;;;6.19;92.84;100407.72;5030463;28;20029;-78
2023/03/26 03:22:11;;;;;;;7.60;1.58;;;;;;;6.20;92.83;100397.34;5031594;28;20102;-77
2023/03/26 03:24:37;;;;;;;9.85;1.83;;;;;;;6.19;92.64;100395.66;5033655;28;20048;-77
2023/03/26 03:27:03;;;;;;;13.40;1.92;;;;;;;6.20;92.90;100396.53;5032028;28;20028;-77
2023/03/26 03:29:28;;;;;;;14.13;2.03;;;;;;;6.21;92.98;100387.91;5032435;28;20025;-77
2023/03/26 03:31:54;;;;;;;9.77;2.10;;;;;;;6.22;92.56;100390.44;5032211;28;20025;-77
2023/03/26 03:34:20;;;;;;;13.07;1.67;;;;;;;6.24;92.88;100377.50;5033525;28;20069;-77
2023/03/26 03:36:47;;;;;;;12.32;2.33;;;;;;;6.25;93.10;100383.53;5033006;28;20040;-77
2023/03/26 03:39:13;;;;;;;16.63;2.17;;;;;;;6.26;92.65;100377.50;5029803;28;20079;-77
2023/03/26 03:41:39;;;;;;;11.63;2.00;;;;;;;6.28;92.50;100373.16;5032015;28;20029;-77
2023/03/26 03:44:04;;;;;;;10.05;1.90;;;;;;;6.29;92.67;100380.03;5036167;28;20028;-77
2023/03/26 03:46:30;;;;;;;10.95;2.00;;;;;;;6.27;93.20;100376.63;5031478;28;20157;-77
2023/03/26 03:48:56;;;;;;;8.25;1.75;;;;;;;6.28;93.12;100366.25;5031787;28;20040;-77
2023/03/26 03:51:21;;;;;;;11.15;1.95;;;;;;;6.30;92.83;100366.25;5031571;28;20322;-77
2023/03/26 03:53:48;;;;;;;10.85;1.85;;;;;;;6.31;92.66;100365.38;5032820;28;20044;-77
2023/03/26 03:56:16;;;;;;;8.93;2.20;;;;;;;6.33;92.52;100367.03;5029575;28;20413;-77
2023/03/26 03:58:44;;;;;;;9.65;1.70;;;;;;;6.35;92.63;100364.41;5029391;28;20060;-77
2023/03/26 04:01:12;;;;;;;9.73;1.98;;;;;;;6.35;92.59;100352.38;5030348;28;20032;-77
2023/03/26 04:03:38;;;;;;;8.23;1.63;;;;;;;6.36;92.58;100354.06;5029444;28;20487;-77
2023/03/26 04:06:06;;;;;;;6.38;1.60;;;;;;;6.38;92.71;100348.88;5031374;28;20056;-77
2023/03/26 04:08:32;;;;;;;11.48;2.00;;;;;;;6.39;92.96;100342.81;5030073;28;20029;-77
2023/03/26 04:10:58;;;;;;;9.95;1.75;;;;;;;6.41;92.80;100338.50;5030604;28;21352;-77
2023/03/26 04:13:23;;;;;;;11.32;1.73;;;;;;;6.43;92.90;100347.06;5032292;28;20087;-77
2023/03/26 04:15:48;;;;;;;9.38;1.80;;;;;;;6.43;93.01;100336.72;5033066;28;20036;-77
2023/03/26 04:18:14;;;;;;;9.65;1.75;;;;;;;6.45;93.27;100334.09;5031615;28;20391;-77
2023/03/26 04:20:45;;;;;;;7.65;1.58;;;;;;;6.46;93.20;100334.09;5031383;28;20025;-77
2023/03/26 04:23:13;;;;;;;6.57;1.35;;;;;;;6.47;93.42;100330.66;5032310;28;20060;-77
2023/03/26 04:25:40;;;;;;;6.90;1.92;;;;;;;6.49;93.32;100326.28;5031585;28;20037;-77
2023/03/26 04:28:07;;;;;;;7.50;1.60;;;;;;;6.49;93.73;100321.09;5031369;28;20076;-77
2023/03/26 04:30:33;;;;;;;8.07;1.80;;;;;;;6.51;93.53;100316.75;5031268;28;20438;-77
2023/03/26 04:33:05;;;;;;;8.63;1.40;;;;;;;6.51;93.79;100313.34;5031594;28;20044;-77
2023/03/26 04:35:35;;;;;;;8.50;1.88;;;;;;;6.52;93.90;100307.31;5031961;28;20067;-76
2023/03/26 04:38:05;;;;;;;7.18;1.50;;;;;;;6.52;94.34;100300.38;5032124;28;20173;-77
2023/03/26 04:40:33;;;;;;;6.85;1.58;;;;;;;6.52;94.52;100300.38;5030372;28;20506;-77
2023/03/26 04:43:01;;;;;;;9.02;1.63;;;;;;;6.53;94.67;100289.16;5039418;28;20028;-77
2023/03/26 04:45:29;;;;;;;8.27;1.52;;;;;;;6.55;94.66;100288.28;5034951;28;20052;-77
2023/03/26 04:47:55;;;;;;;6.47;1.52;;;;;;;6.54;95.10;100282.28;5034226;28;20026;-77
2023/03/26 04:50:21;;;;;;;8.20;1.70;;;;;;;6.55;94.99;100275.38;5034374;28;20021;-76
2023/03/26 04:52:46;;;;;;;7.10;1.55;;;;;;;6.55;95.59;100272.78;5035187;28;20124;-77
2023/03/26 04:55:23;;;;;;;7.22;1.50;;;;;;;6.55;95.07;100267.63;5036634;28;20564;-77
2023/03/26 04:57:54;;;;;;;6.22;1.20;;;;;;;6.55;95.24;100265.03;5033935;28;20025;-77
2023/03/26 05:00:20;;;;;;;9.95;1.50;;;;;;;6.52;94.91;100259.03;5034638;28;20025;-77
2023/03/26 05:02:48;;;;;;;7.60;1.48;;;;;;;6.52;95.38;100247.88;5034796;28;20307;-77
2023/03/26 05:05:14;;;;;;;6.82;1.38;;;;;;;6.52;95.09;100247.88;5035490;28;20043;-76
2023/03/26 05:07:41;;;;;;;8.13;1.52;;;;;;;6.52;95.36;100248.69;5034559;28;20349;-77
2023/03/26 05:10:07;;;;;;;6.65;2.05;;;;;;;6.52;95.39;100240.94;5032948;28;20124;-77
2023/03/26 05:12:33;;;;;;;7.10;1.70;;;;;;;6.52;95.27;100243.53;5035901;28;20495;-77
2023/03/26 05:14:59;;;;;;;9.85;1.75;;;;;;;6.51;95.39;100241.00;5034627;28;20052;-77
2023/03/26 05:17:25;;;;;;;7.10;1.30;;;;;;;6.48;95.23;100231.56;5033448;28;20379;-77
2023/03/26 05:19:50;;;;;;;9.88;1.80;;;;;;;6.49;95.45;100225.50;5035258;28;20091;-77
2023/03/26 05:22:16;;;;;;;7.22;1.65;;;;;;;6.47;95.49;100231.56;5034223;28;20029;-77
2023/03/26 05:24:42;;;;;;;7.13;1.70;;;;;;;6.45;95.36;100229.03;5033641;28;20033;-77
2023/03/26 05:27:08;;;;;;;8.98;1.48;;;;;;;6.45;95.48;100231.63;5035681;28;20086;-77
2023/03/26 05:29:33;;;;;;;8.45;1.58;;;;;;;6.44;95.29;100224.75;5032091;28;20035;-77
2023/03/26 05:31:58;;;;;;;5.43;1.40;;;;;;;6.44;95.29;100214.41;5034486;28;20033;-77
2023/03/26 05:34:25;;;;;;;6.22;1.73;;;;;;;6.43;95.57;100222.19;5032742;28;20144;-77
2023/03/26 05:36:51;;;;;;;5.72;1.38;;;;;;;6.42;95.31;100215.31;5037565;28;20140;-77
2023/03/26 05:39:16;;;;;;;6.25;1.48;;;;;;;6.42;95.51;100211.00;5035559;28;20108;-77
2023/03/26 05:41:42;;;;;;;7.35;1.70;;;;;;;6.41;95.90;100201.53;5034930;28;20105;-77
2023/03/26 05:44:08;;;;;;;8.10;1.67;;;;;;;6.42;95.92;100200.66;5032437;28;20053;-77
2023/03/26 05:46:33;;;;;;;6.82;1.92;;;;;;;6.43;95.85;100189.44;5032704;28;20073;-77
2023/03/26 05:48:59;;;;;;;6.88;1.45;;;;;;;6.43;96.24;100192.03;5036930;28;20038;-77
2023/03/26 05:51:24;;;;;;;6.38;1.65;;;;;;;6.43;96.25;100189.44;5034073;28;20361;-77
2023/03/26 05:53:50;;;;;;;7.32;1.70;;;;;;;6.43;96.35;100186.88;5033223;28;20372;-77
2023/03/26 05:56:15;;;;;;;5.30;1.58;;;;;;;6.43;96.15;100175.66;5035268;28;20478;-77
2023/03/26 05:58:41;;;;;;;6.47;1.52;;;;;;;6.43;96.54;100179.13;5035175;28;20550;-77
2023/03/26 06:01:08;;;;;;;7.95;1.77;;;;;;;6.42;96.33;100180.00;5033229;28;20025;-77
2023/03/26 06:03:37;;;;;;;5.00;1.63;;;;;;;6.43;96.16;100171.38;5032645;28;20061;-77
2023/03/26 06:06:06;;;;;;;4.75;1.33;;;;;;;6.43;96.11;100171.38;5029462;28;20087;-77
2023/03/26 06:08:32;;;;;;;8.90;1.42;;;;;;;6.44;95.92;100162.75;5033347;28;20063;-77
2023/03/26 06:11:03;;;;;;;5.90;1.70;;;;;;;6.45;96.60;100158.41;5033595;28;20044;-77
2023/03/26 06:13:29;;;;;;;4.95;1.60;;;;;;;6.46;96.65;100166.16;5032335;28;20086;-77
2023/03/26 06:15:56;;;;;;;5.68;1.58;;;;;;;6.48;96.71;100166.09;5033387;28;20100;-77
2023/03/26 06:18:22;;;;;;;8.27;1.55;;;;;;;6.48;96.33;100158.34;5034348;28;20099;-77
2023/03/26 06:20:47;;;;;;;8.30;1.65;;;;;;;6.49;96.17;100163.47;5033768;28;20369;-77
2023/03/26 06:23:12;;;;;;;5.68;1.35;;;;;;;6.52;96.66;100155.66;5033395;28;20088;-77
2023/03/26 06:25:37;;;;;;;5.70;1.60;;;;;;;6.54;96.98;100153.06;5033963;28;20083;-77
2023/03/26 06:28:03;;;;;;;4.85;1.38;;;;;;;6.56;96.55;100156.47;5033979;28;20029;-77
2023/03/26 06:30:28;;;;;;;6.47;1.48;;;;;;;6.56;96.68;100151.31;5033941;28;20388;-77
2023/03/26 06:32:53;;;;;;;9.02;1.63;;;;;;;6.57;97.06;100154.72;5032634;28;20033;-77
2023/03/26 06:35:19;;;;;;;6.95;1.60;;;;;;;6.59;96.84;100151.22;5034727;28;20029;-77
2023/03/26 06:37:45;;;;;;;8.73;1.80;;;;;;;6.59;97.12;100151.22;5053214;28;20037;-77
2023/03/26 06:40:11;;;;;;;5.68;1.50;;;;;;;6.64;97.11;100156.31;5033650;28;20380;-77
2023/03/26 06:42:36;;;;;;;7.85;1.40;;;;;;;6.65;97.57;100151.09;5031942;28;20025;-77
2023/03/26 06:45:01;;;;;;;6.72;1.38;;;;;;;6.68;97.26;100152.75;5033696;28;20185;-77
2023/03/26 06:47:27;;;;;;;5.53;1.50;;;;;;;6.71;97.25;100150.13;5032274;28;20028;-77
2023/03/26 06:49:52;;;;;;;9.98;1.60;;;;;;;6.73;97.29;100148.34;5043867;28;20029;-77
2023/03/26 06:52:17;;;;;;;5.43;1.70;;;;;;;6.75;97.53;100151.75;5032568;28;20770;-77
2023/03/26 06:54:42;;;;;;;3.95;1.30;;;;;;;6.77;97.46;100149.13;5032369;28;20037;-77
2023/03/26 06:57:08;;;;;;;7.78;1.70;;;;;;;6.76;97.36;100150.88;5033033;28;20032;-77
2023/03/26 06:59:33;;;;;;;6.97;1.40;;;;;;;6.75;97.66;100146.59;5037541;28;20029;-77
2023/03/26 07:01:58;;;;;;;5.18;1.42;;;;;;;6.76;97.42;100155.19;5031358;28;20028;-77
2023/03/26 07:04:24;;;;;;;7.25;1.67;;;;;;;6.77;97.08;100150.00;5042664;28;20053;-77
2023/03/26 07:06:49;;;;;;;6.63;1.42;;;;;;;6.77;97.32;100154.31;5033140;28;20065;-77
2023/03/26 07:09:14;;;;;;;6.30;1.52;;;;;;;6.79;97.54;100153.41;5039045;28;20095;-77
2023/03/26 07:11:40;;;;;;;7.00;1.45;;;;;;;6.80;97.73;100149.94;5031345;28;20056;-77
2023/03/26 07:14:05;;;;;;;5.68;1.52;;;;;;;6.80;97.37;100149.94;5031984;28;20392;-77
2023/03/26 07:16:30;;;;;;;5.40;1.35;;;;;;;6.80;97.29;100144.78;5038088;28;20487;-77
2023/03/26 07:18:55;;;;;;;8.70;1.65;;;;;;;6.79;97.39;100137.91;5030191;28;20033;-77
2023/03/26 07:21:21;;;;;;;5.75;1.50;;;;;;;6.81;97.68;100136.13;5031584;28;20037;-77
2023/03/26 07:23:47;;;;;;;4.97;1.38;;;;;;;6.82;97.88;100139.56;5032993;28;20116;-77
2023/03/26 07:26:38;;;;;;;6.03;1.40;;;;;;;6.83;97.73;100129.16;5030999;28;20155;-77
2023/03/26 07:29:21;;;;;;;5.72;1.48;;;;;;;6.83;97.82;100129.16;5032539;28;20149;-77
2023/03/26 07:32:02;;;;;;;7.97;1.58;;;;;;;6.84;97.54;100130.03;5032289;28;20047;-77
2023/03/26 07:34:54;;;;;;;5.13;1.13;;;;;;;6.85;97.93;100126.56;5032682;28;20037;-77
2023/03/26 07:37:35;;;;;;;6.13;1.50;;;;;;;6.87;97.79;100123.94;5031633;28;20014;-77
2023/03/26 07:40:08;;;;;;;5.28;1.38;;;;;;;6.89;97.67;100119.59;5031752;28;20112;-77
2023/03/26 07:42:49;;;;;;;7.97;1.83;;;;;;;6.91;98.07;100117.81;5031377;28;20104;-77
2023/03/26 07:45:40;;;;;;;8.05;1.70;;;;;;;6.95;98.10;100119.47;5029042;28;20414;-77
2023/03/26 07:48:14;;;;;;;7.47;1.60;;;;;;;6.97;97.99;100115.09;5031749;28;20364;-77
2023/03/26 07:50:40;;;;;;;4.45;1.40;;;;;;;6.99;98.42;100113.34;5030414;28;20468;-77
2023/03/26 07:53:05;;;;;;;4.95;1.45;;;;;;;7.02;97.96;100115.00;5030446;28;20071;-77
2023/03/26 07:55:31;;;;;;;6.60;1.65;;;;;;;7.02;98.07;100113.25;5029721;28;20036;-77
2023/03/26 07:58:29;;;;;;;4.55;1.65;;;;;;;7.04;98.21;100106.31;5030455;28;21419;-77
2023/03/26 08:01:03;;;;;;;5.47;1.70;;;;;;;7.05;98.21;100110.59;5036246;28;20036;-80
2023/03/26 08:03:47;;;;;;;7.20;2.10;;;;;;;7.08;98.35;100105.34;5025293;28;20060;-76
2023/03/26 08:06:35;;;;;;;5.85;1.50;;;;;;;7.10;98.41;100111.34;5034312;28;21262;-76
2023/03/26 08:09:06;;;;;;;5.70;1.90;;;;;;;7.13;98.55;100115.59;5037159;28;20120;-77
2023/03/26 08:11:37;;;;;;;5.38;2.03;;;;;;;7.13;98.23;100106.13;5033255;28;20507;-76
2023/03/26 08:14:20;;;;;;;4.53;1.50;;;;;;;7.14;98.15;100113.00;5032986;28;20060;-76
2023/03/26 08:17:13;;;;;;;5.97;1.85;;;;;;;7.18;98.43;100107.72;5039336;28;20052;-76
2023/03/26 08:20:01;;;;;;;5.07;1.67;;;;;;;7.18;98.14;100112.88;5031762;28;20492;-76
2023/03/26 08:22:32;;;;;;;7.45;1.85;;;;;;;7.20;98.20;100111.13;5051412;28;20055;-76
2023/03/26 08:25:26;;;;;;;6.53;1.73;;;;;;;7.22;98.64;100109.34;5036734;28;20032;-76
2023/03/26 08:28:07;;;;;;;6.72;1.75;;;;;;;7.25;98.65;100114.47;5038916;28;20140;-76
2023/03/26 08:30:32;;;;;;;6.07;1.80;;;;;;;7.28;98.19;100110.06;5035219;28;20107;-76
2023/03/26 08:33:19;;;;;;;5.65;1.75;;;;;;;7.32;98.59;100109.97;5038236;28;20119;-77
2023/03/26 08:35:45;;;;;;;7.90;1.95;;;;;;;7.31;98.24;100103.97;5036431;28;20421;-76
2023/03/26 08:38:12;;;;;;;8.50;1.77;;;;;;;7.34;99.02;100110.81;5037171;28;20067;-76
2023/03/26 08:41:09;;;;;;;8.63;2.00;;;;;;;7.37;98.61;100098.63;5036519;28;20041;-76
2023/03/26 08:44:05;;;;;;;6.03;1.80;;;;;;;7.40;98.96;100097.72;5037526;28;20037;-76
2023/03/26 08:47:02;;;;;;;6.18;1.80;;;;;;;7.44;98.96;100100.19;5035568;28;20120;-77
2023/03/26 08:49:49;;;;;;;5.13;1.55;;;;;;;7.49;98.44;100101.81;5033928;28;20044;-76
2023/03/26 08:52:35;;;;;;;6.60;1.95;;;;;;;7.52;98.93;100101.72;5037101;28;20033;-76
2023/03/26 08:55:26;;;;;;;4.63;1.83;;;;;;;7.53;98.62;100093.94;5034086;28;20056;-77
2023/03/26 08:58:07;;;;;;;5.82;1.60;;;;;;;7.56;98.89;100095.59;5036949;28;20555;-76
2023/03/26 09:00:57;;;;;;;4.55;1.58;;;;;;;7.57;98.65;100094.69;5050004;28;20048;-77
2023/03/26 09:03:41;;;;;;;6.28;2.10;;;;;;;7.58;98.36;100086.06;5033184;28;20080;-76
2023/03/26 09:06:24;;;;;;;4.60;1.40;;;;;;;7.59;98.58;100086.03;5032292;28;20035;-77
2023/03/26 09:09:09;;;;;;;3.22;1.48;;;;;;;7.66;98.66;100080.66;5033431;28;20131;-76
2023/03/26 09:12:03;;;;;;;4.55;1.70;;;;;;;7.72;98.76;100089.13;5035046;28;20919;-76
2023/03/26 09:14:45;;;;;;;5.80;1.67;;;;;;;7.79;98.62;100083.78;5029752;28;20112;-76
2023/03/26 09:17:21;;;;;;;7.10;1.73;;;;;;;7.86;98.47;100080.13;5032935;28;20025;-76
2023/03/26 09:19:55;;;;;;;5.63;1.73;;;;;;;7.94;98.60;100080.78;5048319;28;20053;-76
2023/03/26 09:22:45;;;;;;;7.25;1.95;;;;;;;8.00;98.48;100072.88;5035037;28;20024;-76
2023/03/26 09:25:38;;;;;;;4.93;1.70;;;;;;;8.08;98.43;100074.38;5033513;28;20029;-76
2023/03/26 09:28:35;;;;;;;4.97;1.80;;;;;;;8.13;98.45;100072.53;5033877;28;20123;-76
2023/03/26 09:31:38;;;;;;;5.22;2.00;;;;;;;8.17;98.11;100068.97;5034459;28;20056;-76
2023/03/26 09:34:25;;;;;;;5.82;2.10;;;;;;;8.16;97.43;100072.44;5037045;28;20476;-77
2023/03/26 09:37:13;;;;;;;6.10;1.95;;;;;;;8.19;97.44;100078.38;5040047;28;20079;-76
2023/03/26 09:39:59;;;;;;;5.32;2.13;;;;;;;8.22;97.25;100066.22;5037428;28;20551;-76
2023/03/26 09:42:52;;;;;;;6.47;2.58;;;;;;;8.22;97.21;100072.25;5037770;28;20056;-77
2023/03/26 09:45:56;;;;;;;5.68;2.10;;;;;;;8.19;96.87;100069.75;5036992;28;20037;-77
2023/03/26 09:48:34;;;;;;;8.10;2.08;;;;;;;8.14;96.94;100063.84;5021584;28;20503;-76
2023/03/26 09:51:22;;;;;;;5.43;2.15;;;;;;;8.11;96.88;100069.97;5040086;28;20033;-76
2023/03/26 09:54:43;;;;;;;6.82;2.15;;;;;;;8.10;97.04;100072.59;5037963;28;20041;-76
2023/03/26 09:57:32;;;;;;;5.40;1.92;;;;;;;8.10;97.03;100073.47;5019197;28;20370;-77
2023/03/26 10:00:35;;;;;;;4.78;1.67;;;;;;;8.15;97.29;100068.16;5033560;28;20060;-77
2023/03/26 10:03:39;;;;;;;3.63;1.42;;;;;;;8.25;96.94;100069.56;5035454;28;20025;-77
2023/03/26 10:06:14;;;;;;;4.57;1.70;;;;;;;8.30;96.91;100070.28;4993290;28;20033;-77
2023/03/26 10:09:05;;;;;;;4.05;1.75;;;;;;;8.38;96.75;100075.25;5030726;28;20430;-77
2023/03/26 10:11:46;;;;;;;3.73;1.30;;;;;;;8.43;95.81;100069.94;5035041;28;20035;-77
2023/03/26 10:14:15;;;;;;;5.78;1.20;;;;;;;8.47;96.21;100068.97;5031428;28;20294;-77
2023/03/26 10:17:24;;;;;;;4.82;1.30;;;;;;;8.52;95.49;100072.31;5037799;28;20029;-77
2023/03/26 10:20:25;;;;;;;4.32;1.30;;;;;;;8.54;95.40;100072.25;5043516;28;20036;-77
2023/03/26 10:22:57;;;;;;;3.20;1.02;;;;;;;8.53;94.29;100071.41;5035464;28;20074;-77
2023/03/26 10:25:50;;;;;;;3.53;1.08;;;;;;;8.52;94.54;100072.31;5039571;28;20037;-77
2023/03/26 10:28:33;;;;;;;3.08;0.93;;;;;;;8.49;94.25;100075.81;5034303;28;20029;-77
2023/03/26 10:31:35;;;;;;;4.25;1.25;;;;;;;8.48;94.24;100083.66;5037606;28;20111;-77
2023/03/26 10:34:19;;;;;;;5.30;1.30;;;;;;;8.45;94.16;100081.09;5039243;28;20411;-77
2023/03/26 10:37:00;;;;;;;3.95;1.10;;;;;;;8.44;94.32;100082.00;5037506;28;20412;-77
2023/03/26 10:40:00;;;;;;;5.53;1.25;;;;;;;8.43;94.12;100085.47;5031942;28;20041;-77
2023/03/26 10:42:53;;;;;;;2.85;1.17;;;;;;;8.39;93.68;100078.69;5035969;28;20116;-77
2023/03/26 10:45:56;;;;;;;3.63;1.38;;;;;;;8.35;93.72;100081.38;5039542;28;20493;-77
2023/03/26 10:48:46;;;;;;;3.15;1.08;;;;;;;8.32;93.47;100083.19;5032382;28;20052;-77
2023/03/26 10:51:23;;;;;;;3.13;1.40;;;;;;;8.29;93.58;100088.47;5034849;28;20032;-77
2023/03/26 10:53:51;;;;;;;4.50;1.42;;;;;;;8.25;93.07;100087.72;5034455;28;20024;-77
2023/03/26 10:56:25;;;;;;;3.45;1.08;;;;;;;8.16;92.84;100088.81;5037953;28;20037;-77
2023/03/26 10:58:51;;;;;;;2.10;0.90;;;;;;;8.13;92.80;100088.91;5033966;28;20030;-78
2023/03/26 11:01:23;;;;;;;1.73;0.98;;;;;;;8.17;93.51;100089.69;5036611;28;20037;-78
2023/03/26 11:03:54;;;;;;;2.60;0.82;;;;;;;8.23;93.90;100091.25;5027984;28;20462;-77
2023/03/26 11:06:48;;;;;;;3.00;1.10;;;;;;;8.30;94.37;100091.03;5039245;28;20035;-78
2023/03/26 11:09:32;;;;;;;3.85;0.90;;;;;;;8.42;94.35;100100.19;5032989;28;20039;-78
2023/03/26 11:12:13;;;;;;;3.28;0.85;;;;;;;8.48;93.79;100094.03;5032113;28;20041;-77
2023/03/26 11:14:56;;;;;;;1.55;0.85;;;;;;;8.54;93.91;100096.41;5035319;28;20069;-77
2023/03/26 11:17:40;;;;;;;1.67;0.60;;;;;;;8.55;92.75;100095.53;5029908;28;20040;-77
2023/03/26 11:20:38;;;;;;;1.15;0.50;;;;;;;8.61;92.29;100100.53;5033823;28;20037;-78
2023/03/26 11:23:15;;;;;;;1.55;0.50;;;;;;;8.65;92.29;100104.75;5034870;28;20021;-77
2023/03/26 11:26:06;;;;;;;1.88;0.57;;;;;;;8.70;92.31;100104.59;5037834;28;20084;-77
2023/03/26 11:28:52;;;;;;;1.52;0.50;;;;;;;8.78;92.59;100099.19;5034900;28;20044;-78
2023/03/26 11:31:32;;;;;;;1.98;0.80;;;;;;;8.82;92.10;100103.38;5032212;28;20029;-77
2023/03/26 11:34:05;;;;;;;3.08;1.10;;;;;;;8.84;92.20;100108.50;5032657;28;20743;-77
2023/03/26 11:36:37;;;;;;;2.08;0.90;;;;;;;8.85;92.19;100103.28;5036922;28;20453;-77
2023/03/26 11:39:09;;;;;;;3.22;0.90;;;;;;;8.86;92.08;100110.19;5033343;28;20563;-77
2023/03/26 11:41:35;;;;;;;2.05;0.88;;;;;;;8.86;91.28;100112.78;5030761;28;20559;-77
2023/03/26 11:44:09;;;;;;;1.17;0.80;;;;;;;8.87;91.35;100106.69;5028861;28;20044;-77
2023/03/26 11:46:38;;;;;;;2.10;0.70;;;;;;;8.85;91.06;100111.06;5030364;28;20468;-77
2023/03/26 11:49:10;;;;;;;1.67;0.65;;;;;;;8.86;90.94;100111.91;5032035;28;20033;-77
2023/03/26 11:51:37;;;;;;;0.80;0.60;;;;;;;8.91;90.84;100123.00;5048170;28;20096;-77
2023/03/26 11:54:04;;;;;;;2.67;0.80;;;;;;;8.95;90.49;100115.06;5027147;28;20025;-77
2023/03/26 11:56:36;;;;;;;3.30;0.80;;;;;;;8.99;90.49;100117.59;5032019;28;20040;-77
2023/03/26 11:59:19;;;;;;;;;;;;;;;9.06;90.75;100124.25;5033591;28;20033;-77
2023/03/26 12:02:08;;;;;;;1.52;0.98;;;;;;;9.12;91.29;100116.28;5031227;28;20084;-77